createdAt,value
2022-10-29T00:02:05.275Z,13.09
2022-10-29T00:04:32.568Z,13.07
2022-10-29T00:06:59.597Z,13.05
2022-10-29T00:09:26.618Z,13.03
2022-10-29T00:11:53.698Z,13.00
2022-10-29T00:14:20.807Z,12.98
2022-10-29T00:16:47.860Z,12.95
2022-10-29T00:19:14.872Z,12.94
2022-10-29T00:21:41.945Z,12.92
2022-10-29T00:24:09.511Z,12.92
2022-10-29T00:26:36.718Z,12.92
2022-10-29T00:29:03.755Z,12.91
2022-10-29T00:31:31.377Z,12.88
2022-10-29T00:33:58.482Z,12.86
2022-10-29T00:36:27.316Z,12.85
2022-10-29T00:38:54.567Z,12.84
2022-10-29T00:41:23.006Z,12.83
2022-10-29T00:43:51.511Z,12.79
2022-10-29T00:46:21.399Z,12.76
2022-10-29T00:48:50.186Z,12.76
2022-10-29T00:51:19.061Z,12.73
2022-10-29T00:53:48.953Z,12.69
2022-10-29T00:56:16.380Z,12.67
2022-10-29T00:58:44.277Z,12.63
2022-10-29T01:01:11.433Z,12.61
2022-10-29T01:03:39.084Z,12.59
2022-10-29T01:06:06.678Z,12.56
2022-10-29T01:08:33.746Z,12.56
2022-10-29T01:11:18.905Z,12.56
2022-10-29T01:13:48.834Z,12.54
2022-10-29T01:16:22.046Z,12.53
2022-10-29T01:19:04.154Z,12.53
2022-10-29T01:21:40.004Z,12.51
2022-10-29T01:24:34.347Z,12.48
2022-10-29T01:27:10.544Z,12.49
2022-10-29T01:29:46.525Z,12.48
2022-10-29T01:32:16.351Z,12.44
2022-10-29T01:34:51.112Z,12.42
2022-10-29T01:37:28.530Z,12.40
2022-10-29T01:40:14.402Z,12.39
2022-10-29T01:42:47.294Z,12.40
2022-10-29T01:45:19.498Z,12.40
2022-10-29T01:47:51.154Z,12.40
2022-10-29T01:50:20.455Z,12.39
2022-10-29T01:52:48.646Z,12.39
2022-10-29T01:55:20.329Z,12.39
2022-10-29T01:57:47.343Z,12.38
2022-10-29T02:00:19.026Z,12.36
2022-10-29T02:02:54.429Z,12.35
2022-10-29T02:05:24.233Z,12.34
2022-10-29T02:07:58.048Z,12.31
2022-10-29T02:10:57.526Z,12.30
2022-10-29T02:13:29.624Z,12.29
2022-10-29T02:15:57.193Z,12.27
2022-10-29T02:18:24.442Z,12.25
2022-10-29T02:20:51.585Z,12.23
2022-10-29T02:23:18.641Z,12.21
2022-10-29T02:25:45.855Z,12.19
2022-10-29T02:28:13.191Z,12.14
2022-10-29T02:30:40.347Z,12.10
2022-10-29T02:33:07.424Z,12.07
2022-10-29T02:35:34.513Z,12.02
2022-10-29T02:38:01.563Z,12.00
2022-10-29T02:40:28.610Z,11.96
2022-10-29T02:42:56.246Z,11.94
2022-10-29T02:45:23.573Z,11.92
2022-10-29T02:47:50.613Z,11.87
2022-10-29T02:50:17.617Z,11.82
2022-10-29T02:52:44.659Z,11.76
2022-10-29T02:55:26.035Z,11.75
2022-10-29T02:57:53.300Z,11.77
2022-10-29T03:00:20.531Z,11.77
2022-10-29T03:02:50.018Z,11.75
2022-10-29T03:05:17.161Z,11.76
2022-10-29T03:07:44.211Z,11.76
2022-10-29T03:10:11.262Z,11.73
2022-10-29T03:12:38.305Z,11.72
2022-10-29T03:15:05.680Z,11.68
2022-10-29T03:17:32.758Z,11.65
2022-10-29T03:19:59.818Z,11.64
2022-10-29T03:22:26.872Z,11.63
2022-10-29T03:24:53.953Z,11.58
2022-10-29T03:27:21.032Z,11.57
2022-10-29T03:29:48.115Z,11.53
2022-10-29T03:32:15.197Z,11.51
2022-10-29T03:34:42.231Z,11.51
2022-10-29T03:37:09.270Z,11.51
2022-10-29T03:39:36.324Z,11.54
2022-10-29T03:42:04.039Z,11.55
2022-10-29T03:44:31.241Z,11.54
2022-10-29T03:46:58.292Z,11.55
2022-10-29T03:49:25.362Z,11.52
2022-10-29T03:51:52.426Z,11.53
2022-10-29T03:54:19.513Z,11.51
2022-10-29T03:56:46.636Z,11.48
2022-10-29T03:59:13.782Z,11.45
2022-10-29T04:01:41.336Z,11.43
2022-10-29T04:04:09.756Z,11.42
2022-10-29T04:06:36.866Z,11.44
2022-10-29T04:09:03.931Z,11.43
2022-10-29T04:11:31.005Z,11.48
2022-10-29T04:13:58.060Z,11.49
2022-10-29T04:16:25.241Z,11.48
2022-10-29T04:18:52.302Z,11.46
2022-10-29T04:28:17.707Z,11.39
2022-10-29T04:29:40.684Z,11.39
2022-10-29T04:32:07.741Z,11.39
2022-10-29T04:34:34.806Z,11.38
2022-10-29T04:37:01.812Z,11.36
2022-10-29T04:39:28.912Z,11.32
2022-10-29T04:41:55.959Z,11.28
2022-10-29T04:44:23.225Z,11.26
2022-10-29T04:46:50.308Z,11.25
2022-10-29T04:49:17.383Z,11.24
2022-10-29T04:51:44.436Z,11.23
2022-10-29T04:54:11.647Z,11.23
2022-10-29T04:56:38.701Z,11.24
2022-10-29T04:59:05.859Z,11.24
2022-10-29T05:01:33.135Z,11.21
2022-10-29T05:04:00.468Z,11.20
2022-10-29T05:06:27.586Z,11.20
2022-10-29T05:08:54.654Z,11.20
2022-10-29T05:11:21.771Z,11.19
2022-10-29T05:13:48.837Z,11.17
2022-10-29T05:16:15.901Z,11.15
2022-10-29T05:18:42.942Z,11.14
2022-10-29T05:21:09.996Z,11.13
2022-10-29T05:23:37.061Z,11.10
2022-10-29T05:26:04.205Z,11.08
2022-10-29T05:28:31.259Z,11.08
2022-10-29T05:31:00.100Z,11.07
2022-10-29T05:33:27.161Z,11.10
2022-10-29T05:35:54.275Z,11.10
2022-10-29T05:38:21.308Z,11.12
2022-10-29T05:40:48.354Z,11.12
2022-10-29T05:43:16.788Z,11.12
2022-10-29T05:45:44.271Z,11.12
2022-10-29T05:50:44.059Z,11.16
2022-10-29T05:53:12.342Z,11.18
2022-10-29T05:55:39.953Z,11.19
2022-10-29T05:58:09.429Z,11.23
2022-10-29T06:00:37.660Z,11.23
2022-10-29T06:03:09.019Z,11.23
2022-10-29T06:05:36.165Z,11.24
2022-10-29T06:08:03.219Z,11.27
2022-10-29T06:10:30.261Z,11.31
2022-10-29T06:12:57.332Z,11.33
2022-10-29T06:15:24.457Z,11.33
2022-10-29T06:17:51.457Z,11.38
2022-10-29T06:20:20.837Z,11.40
2022-10-29T06:22:48.092Z,11.41
2022-10-29T06:25:15.181Z,11.44
2022-10-29T06:27:42.253Z,11.45
2022-10-29T06:30:09.583Z,11.46
2022-10-29T06:32:36.961Z,11.47
2022-10-29T06:35:04.171Z,11.45
2022-10-29T06:37:33.250Z,11.45
2022-10-29T06:40:00.317Z,11.45
2022-10-29T06:42:27.436Z,11.45
2022-10-29T06:44:54.498Z,11.45
2022-10-29T06:47:21.500Z,11.47
2022-10-29T06:49:48.552Z,11.51
2022-10-29T06:52:15.651Z,11.51
2022-10-29T06:54:42.695Z,11.52
2022-10-29T06:57:09.762Z,11.55
2022-10-29T06:59:36.811Z,11.54
2022-10-29T07:02:03.909Z,11.56
2022-10-29T07:04:31.035Z,11.57
2022-10-29T07:06:58.096Z,11.58
2022-10-29T07:09:25.170Z,11.57
2022-10-29T07:11:52.224Z,11.59
2022-10-29T07:14:19.249Z,11.58
2022-10-29T07:16:46.413Z,11.60
2022-10-29T07:19:13.449Z,11.61
2022-10-29T07:21:43.483Z,11.61
2022-10-29T07:24:10.637Z,11.62
2022-10-29T07:26:37.762Z,11.63
2022-10-29T07:29:04.857Z,11.63
2022-10-29T07:31:31.954Z,11.64
2022-10-29T07:33:59.084Z,11.69
2022-10-29T07:36:26.173Z,11.75
2022-10-29T07:38:53.258Z,11.79
2022-10-29T07:41:20.300Z,11.83
2022-10-29T07:43:47.449Z,11.85
2022-10-29T07:46:14.456Z,11.88
2022-10-29T07:48:41.503Z,11.87
2022-10-29T07:51:08.580Z,11.89
2022-10-29T07:53:35.681Z,11.88
2022-10-29T07:56:02.706Z,11.89
2022-10-29T07:58:29.740Z,11.91
2022-10-29T08:00:59.063Z,11.93
2022-10-29T08:03:26.178Z,11.96
2022-10-29T08:05:56.800Z,11.99
2022-10-29T08:08:24.447Z,12.01
2022-10-29T08:10:51.462Z,12.02
2022-10-29T08:13:18.666Z,12.07
2022-10-29T08:15:46.450Z,12.14
2022-10-29T08:18:17.210Z,12.25
2022-10-29T08:20:44.751Z,12.37
2022-10-29T08:23:12.140Z,12.51
2022-10-29T08:25:42.581Z,12.65
2022-10-29T08:28:11.122Z,12.72
2022-10-29T08:30:38.868Z,12.81
2022-10-29T08:33:06.307Z,12.88
2022-10-29T08:35:33.876Z,12.97
2022-10-29T08:38:01.115Z,13.05
2022-10-29T08:40:30.900Z,13.15
2022-10-29T08:43:24.198Z,13.24
2022-10-29T08:45:55.164Z,13.38
2022-10-29T08:48:30.107Z,13.48
2022-10-29T08:51:00.910Z,13.59
2022-10-29T08:53:34.373Z,13.69
2022-10-29T08:56:03.015Z,13.76
2022-10-29T08:58:33.227Z,13.86
2022-10-29T09:01:00.349Z,13.97
2022-10-29T09:03:29.543Z,14.08
2022-10-29T09:06:17.359Z,14.14
2022-10-29T09:08:47.531Z,14.21
2022-10-29T09:11:14.554Z,14.33
2022-10-29T09:14:04.665Z,14.56
2022-10-29T09:16:48.501Z,14.71
2022-10-29T09:19:34.401Z,14.76
2022-10-29T09:22:07.545Z,14.84
2022-10-29T09:24:40.496Z,14.96
2022-10-29T09:27:33.779Z,14.87
2022-10-29T09:30:15.262Z,14.84
2022-10-29T09:32:42.398Z,14.84
2022-10-29T09:35:15.334Z,14.83
2022-10-29T09:37:54.746Z,14.92
2022-10-29T09:40:24.959Z,14.97
2022-10-29T09:42:52.868Z,15.05
2022-10-29T09:45:22.496Z,15.10
2022-10-29T09:48:08.198Z,14.98
2022-10-29T09:50:40.582Z,15.04
2022-10-29T09:53:08.533Z,15.10
2022-10-29T09:55:40.555Z,15.19
2022-10-29T09:58:09.799Z,15.29
2022-10-29T10:00:36.867Z,15.44
2022-10-29T10:03:10.841Z,15.56
2022-10-29T10:05:56.016Z,15.62
2022-10-29T10:08:23.086Z,15.71
2022-10-29T10:10:52.313Z,15.82
2022-10-29T10:13:26.293Z,15.90
2022-10-29T10:15:59.025Z,15.96
2022-10-29T10:18:32.363Z,16.02
2022-10-29T10:20:59.499Z,15.99
2022-10-29T10:23:38.787Z,16.03
2022-10-29T10:26:06.288Z,16.00
2022-10-29T10:28:36.140Z,16.03
2022-10-29T10:31:06.030Z,16.13
2022-10-29T10:33:34.143Z,16.18
2022-10-29T10:36:05.763Z,16.32
2022-10-29T10:38:45.045Z,16.43
2022-10-29T10:41:13.828Z,16.54
2022-10-29T10:43:45.074Z,16.66
2022-10-29T10:46:20.226Z,16.58
2022-10-29T10:48:56.729Z,16.64
2022-10-29T10:51:26.151Z,16.60
2022-10-29T10:53:53.342Z,16.58
2022-10-29T10:56:21.564Z,16.71
2022-10-29T10:59:03.738Z,16.79
2022-10-29T11:01:30.925Z,16.86
2022-10-29T11:04:01.274Z,16.92
2022-10-29T11:06:34.986Z,17.01
2022-10-29T11:09:06.247Z,16.99
2022-10-29T11:11:44.180Z,17.04
2022-10-29T11:14:34.670Z,17.04
2022-10-29T11:17:02.707Z,17.13
2022-10-29T11:19:35.874Z,17.21
2022-10-29T11:22:13.967Z,17.23
2022-10-29T11:24:49.787Z,17.31
2022-10-29T11:27:35.519Z,17.33
2022-10-29T11:30:09.577Z,17.39
2022-10-29T11:32:55.832Z,17.42
2022-10-29T11:35:38.081Z,17.45
2022-10-29T11:38:05.091Z,17.49
2022-10-29T11:40:35.003Z,17.48
2022-10-29T11:43:08.421Z,17.49
2022-10-29T11:45:42.190Z,17.52
2022-10-29T11:48:29.620Z,17.52
2022-10-29T11:50:59.791Z,17.59
2022-10-29T11:53:45.729Z,17.64
2022-10-29T11:56:21.628Z,17.71
2022-10-29T11:58:53.029Z,17.76
2022-10-29T12:01:22.895Z,17.82
2022-10-29T12:06:54.766Z,17.89
2022-10-29T12:09:24.608Z,17.97
2022-10-29T12:11:59.024Z,17.99
2022-10-29T12:14:29.964Z,18.05
2022-10-29T12:17:05.927Z,18.06
2022-10-29T12:19:35.915Z,18.06
2022-10-29T12:22:19.036Z,18.18
2022-10-29T12:25:15.309Z,18.27
2022-10-29T12:28:01.150Z,18.31
2022-10-29T12:30:32.396Z,18.33
2022-10-29T12:33:05.946Z,18.26
2022-10-29T12:35:47.152Z,18.25
2022-10-29T12:38:20.225Z,18.28
2022-10-29T12:40:50.639Z,18.39
2022-10-29T12:43:27.308Z,18.41
2022-10-29T12:46:19.030Z,18.37
2022-10-29T12:48:54.737Z,18.35
2022-10-29T12:51:27.885Z,18.44
2022-10-29T12:53:54.899Z,18.43
2022-10-29T12:56:22.798Z,18.46
2022-10-29T12:58:51.027Z,18.47
2022-10-29T13:01:49.994Z,18.47
2022-10-29T13:04:30.842Z,18.48
2022-10-29T13:07:01.061Z,18.45
2022-10-29T13:09:29.859Z,18.43
2022-10-29T13:12:09.787Z,18.44
2022-10-29T13:14:36.882Z,18.49
2022-10-29T13:17:05.503Z,18.46
2022-10-29T13:19:47.045Z,18.46
2022-10-29T13:22:16.901Z,18.42
2022-10-29T13:24:44.112Z,18.39
2022-10-29T13:27:17.333Z,18.44
2022-10-29T13:29:49.193Z,18.43
2022-10-29T13:32:29.452Z,18.44
2022-10-29T13:34:57.634Z,18.44
2022-10-29T13:37:58.036Z,18.43
2022-10-29T13:40:25.093Z,18.44
2022-10-29T13:42:55.219Z,18.46
2022-10-29T13:45:22.750Z,18.48
2022-10-29T13:47:50.309Z,18.49
2022-10-29T13:50:18.107Z,18.45
2022-10-29T13:52:48.675Z,18.43
2022-10-29T13:55:17.360Z,18.41
2022-10-29T13:57:44.405Z,18.35
2022-10-29T14:00:11.434Z,18.33
2022-10-29T14:02:41.595Z,18.32
2022-10-29T14:05:12.687Z,18.30
2022-10-29T14:07:42.894Z,18.29
2022-10-29T14:10:17.768Z,18.27
2022-10-29T14:12:46.195Z,18.26
2022-10-29T14:15:14.908Z,18.27
2022-10-29T14:17:42.005Z,18.27
2022-10-29T14:20:22.682Z,18.26
2022-10-29T14:22:49.760Z,18.25
2022-10-29T14:25:28.994Z,18.24
2022-10-29T14:28:16.372Z,18.21
2022-10-29T14:30:47.280Z,18.19
2022-10-29T14:33:49.929Z,18.19
2022-10-29T14:36:29.590Z,18.19
2022-10-29T14:38:56.615Z,18.16
2022-10-29T14:41:24.533Z,18.16
2022-10-29T14:44:00.816Z,18.15
2022-10-29T14:46:29.591Z,18.13
2022-10-29T14:49:00.189Z,18.08
2022-10-29T14:51:27.596Z,18.06
2022-10-29T14:53:58.005Z,18.04
2022-10-29T14:56:28.817Z,18.01
2022-10-29T14:58:55.903Z,17.98
2022-10-29T15:01:23.157Z,17.91
2022-10-29T15:03:56.178Z,17.88
2022-10-29T15:06:27.451Z,17.86
2022-10-29T15:08:56.523Z,17.78
2022-10-29T15:11:36.096Z,17.69
2022-10-29T15:14:04.233Z,17.65
2022-10-29T15:16:31.964Z,17.62
2022-10-29T15:18:59.775Z,17.57
2022-10-29T15:21:31.727Z,17.54
2022-10-29T15:24:00.864Z,17.48
2022-10-29T15:26:28.083Z,17.45
2022-10-29T15:28:56.125Z,17.38
2022-10-29T15:31:43.384Z,17.29
2022-10-29T15:34:15.036Z,17.24
2022-10-29T15:37:05.099Z,17.22
2022-10-29T15:39:53.305Z,17.15
2022-10-29T15:42:21.417Z,17.09
2022-10-29T15:45:06.884Z,16.98
2022-10-29T15:47:40.848Z,16.96
2022-10-29T15:50:10.851Z,16.94
2022-10-29T15:52:39.646Z,16.90
2022-10-29T15:55:12.901Z,16.82
2022-10-29T15:57:40.484Z,16.81
2022-10-29T16:00:08.475Z,16.77
2022-10-29T16:02:36.372Z,16.67
2022-10-29T16:05:03.633Z,16.62
2022-10-29T16:07:30.704Z,16.61
2022-10-29T16:09:58.361Z,16.60
2022-10-29T16:12:25.690Z,16.58
2022-10-29T16:14:52.728Z,16.54
2022-10-29T16:17:21.078Z,16.48
2022-10-29T16:19:48.386Z,16.40
2022-10-29T16:22:18.134Z,16.31
2022-10-29T16:24:45.211Z,16.25
2022-10-29T16:27:18.366Z,16.22
2022-10-29T16:29:49.921Z,16.20
2022-10-29T16:32:19.124Z,16.17
2022-10-29T16:34:46.177Z,16.15
2022-10-29T16:37:14.157Z,16.15
2022-10-29T16:39:41.365Z,16.13
2022-10-29T16:42:28.739Z,16.14
2022-10-29T16:44:55.977Z,16.09
2022-10-29T16:47:23.188Z,16.00
2022-10-29T16:49:50.298Z,15.95
2022-10-29T16:52:21.021Z,15.89
2022-10-29T16:54:50.257Z,15.81
2022-10-29T16:57:17.372Z,15.75
2022-10-29T16:59:44.412Z,15.70
2022-10-29T17:02:11.959Z,15.67
2022-10-29T17:04:39.085Z,15.63
2022-10-29T17:07:06.205Z,15.65
2022-10-29T17:09:35.389Z,15.66
2022-10-29T17:12:02.651Z,15.66
2022-10-29T17:14:29.767Z,15.63
2022-10-29T17:16:57.300Z,15.57
2022-10-29T17:19:24.855Z,15.55
2022-10-29T17:21:51.935Z,15.51
2022-10-29T17:24:19.022Z,15.49
2022-10-29T17:26:46.138Z,15.45
2022-10-29T17:29:13.217Z,15.44
2022-10-29T17:31:40.249Z,15.41
2022-10-29T17:34:07.298Z,15.41
2022-10-29T17:36:34.391Z,15.36
2022-10-29T17:39:01.425Z,15.34
2022-10-29T17:41:28.451Z,15.33
2022-10-29T17:43:55.564Z,15.34
2022-10-29T17:46:22.606Z,15.31
2022-10-29T17:48:49.703Z,15.28
2022-10-29T17:51:16.738Z,15.23
2022-10-29T17:53:43.807Z,15.18
2022-10-29T17:56:10.878Z,15.14
2022-10-29T17:58:38.422Z,15.12
2022-10-29T18:01:06.684Z,15.12
2022-10-29T18:03:34.069Z,15.10
2022-10-29T18:06:01.891Z,15.08
2022-10-29T18:08:29.335Z,15.06
2022-10-29T18:11:06.694Z,15.04
2022-10-29T18:13:39.344Z,15.01
2022-10-29T18:16:06.636Z,14.99
2022-10-29T18:18:47.970Z,15.00
2022-10-29T18:21:23.385Z,14.98
2022-10-29T18:23:50.826Z,14.96
2022-10-29T18:26:20.252Z,14.92
2022-10-29T18:28:47.357Z,14.91
2022-10-29T18:31:14.474Z,14.89
2022-10-29T18:33:41.547Z,14.86
2022-10-29T18:36:08.743Z,14.86
2022-10-29T18:38:35.760Z,14.85
2022-10-29T18:41:02.795Z,14.79
2022-10-29T18:43:32.327Z,14.75
2022-10-29T18:46:00.464Z,14.72
2022-10-29T18:51:07.705Z,14.68
2022-10-29T18:53:35.818Z,14.65
2022-10-29T18:56:03.728Z,14.63
2022-10-29T18:58:32.196Z,14.63
2022-10-29T19:01:07.091Z,14.60
2022-10-29T19:03:34.767Z,14.57
2022-10-29T19:06:06.450Z,14.55
2022-10-29T19:08:34.789Z,14.56
2022-10-29T19:11:05.771Z,14.53
2022-10-29T19:13:33.288Z,14.50
2022-10-29T19:16:20.601Z,14.47
2022-10-29T19:18:48.134Z,14.43
2022-10-29T19:21:18.564Z,14.41
2022-10-29T19:23:46.361Z,14.39
2022-10-29T19:26:17.148Z,14.38
2022-10-29T19:28:45.215Z,14.38
2022-10-29T19:31:13.436Z,14.37
2022-10-29T19:33:41.131Z,14.35
2022-10-29T19:36:08.814Z,14.34
2022-10-29T19:38:35.972Z,14.34
2022-10-29T19:41:03.101Z,14.32
2022-10-29T19:43:30.304Z,14.32
2022-10-29T19:45:57.808Z,14.31
2022-10-29T19:48:25.302Z,14.29
2022-10-29T19:50:56.394Z,14.28
2022-10-29T19:53:24.356Z,14.28
2022-10-29T19:55:51.962Z,14.27
2022-10-29T19:58:19.961Z,14.26
2022-10-29T20:00:47.510Z,14.21
2022-10-29T20:03:15.659Z,14.20
2022-10-29T20:05:43.236Z,14.17
2022-10-29T20:08:14.757Z,14.17
2022-10-29T20:10:43.428Z,14.17
2022-10-29T20:13:10.602Z,14.16
2022-10-29T20:15:40.794Z,14.15
2022-10-29T20:18:07.874Z,14.15
2022-10-29T20:20:35.029Z,14.16
2022-10-29T20:23:02.395Z,14.17
2022-10-29T20:25:29.581Z,14.16
2022-10-29T20:27:58.092Z,14.17
2022-10-29T20:30:25.166Z,14.15
2022-10-29T20:32:52.185Z,14.13
2022-10-29T20:35:19.735Z,14.12
2022-10-29T20:37:46.765Z,14.10
2022-10-29T20:40:13.858Z,14.10
2022-10-29T20:42:40.962Z,14.09
2022-10-29T20:45:08.133Z,14.09
2022-10-29T20:47:35.350Z,14.08
2022-10-29T20:50:02.369Z,14.08
2022-10-29T20:52:30.390Z,14.10
2022-10-29T20:54:57.496Z,14.10
2022-10-29T20:57:24.516Z,14.11
2022-10-29T20:59:51.610Z,14.11
2022-10-29T21:02:18.847Z,14.11
2022-10-29T21:04:45.983Z,14.12
2022-10-29T21:07:13.105Z,14.10
2022-10-29T21:09:40.150Z,14.08
2022-10-29T21:12:07.367Z,14.08
2022-10-29T21:14:34.404Z,14.06
2022-10-29T21:17:01.470Z,14.03
2022-10-29T21:19:28.727Z,14.03
2022-10-29T21:21:55.762Z,14.04
2022-10-29T21:24:22.798Z,14.02
2022-10-29T21:26:49.867Z,14.01
2022-10-29T21:29:16.956Z,13.98
2022-10-29T21:31:44.006Z,13.98
2022-10-29T21:34:11.071Z,13.97
2022-10-29T21:36:38.138Z,13.96
2022-10-29T21:39:05.248Z,13.94
2022-10-29T21:41:32.357Z,13.92
2022-10-29T21:43:59.410Z,13.92
2022-10-29T21:46:26.574Z,13.90
2022-10-29T21:48:54.982Z,13.88
2022-10-29T21:51:22.054Z,13.87
2022-10-29T21:53:49.204Z,13.85
2022-10-29T21:56:16.580Z,13.85
2022-10-29T21:58:43.976Z,13.84
2022-10-29T22:01:12.545Z,13.83
2022-10-29T22:03:43.376Z,13.82
2022-10-29T22:06:12.013Z,13.79
2022-10-29T22:08:39.423Z,13.79
2022-10-29T22:11:06.929Z,13.79
2022-10-29T22:13:35.193Z,13.77
2022-10-29T22:16:03.006Z,13.77
2022-10-29T22:18:30.256Z,13.76
2022-10-29T22:21:08.002Z,13.75
2022-10-29T22:23:35.154Z,13.73
2022-10-29T22:26:02.162Z,13.72
2022-10-29T22:28:29.211Z,13.73
2022-10-29T22:31:00.544Z,13.71
2022-10-29T22:33:28.416Z,13.70
2022-10-29T22:35:55.539Z,13.70
2022-10-29T22:38:22.626Z,13.71
2022-10-29T22:40:49.720Z,13.73
2022-10-29T22:43:16.790Z,13.73
2022-10-29T22:45:45.253Z,13.72
2022-10-29T22:48:12.304Z,13.70
2022-10-29T22:50:39.387Z,13.69
2022-10-29T22:53:06.439Z,13.67
2022-10-29T22:55:33.507Z,13.66
2022-10-29T22:58:00.536Z,13.65
2022-10-29T23:00:27.665Z,13.64
2022-10-29T23:02:54.847Z,13.63
2022-10-29T23:05:22.034Z,13.63
2022-10-29T23:07:49.090Z,13.63
2022-10-29T23:10:16.129Z,13.63
2022-10-29T23:12:43.193Z,13.61
2022-10-29T23:15:10.336Z,13.60
2022-10-29T23:17:37.362Z,13.59
2022-10-29T23:20:04.523Z,13.59
2022-10-29T23:22:31.602Z,13.57
2022-10-29T23:24:58.635Z,13.55
2022-10-29T23:27:25.631Z,13.54
2022-10-29T23:29:52.707Z,13.52
2022-10-29T23:32:19.754Z,13.51
2022-10-29T23:34:46.867Z,13.50
2022-10-29T23:37:13.906Z,13.48
2022-10-29T23:39:40.967Z,13.46
2022-10-29T23:42:07.992Z,13.43
2022-10-29T23:44:35.060Z,13.43
2022-10-29T23:47:02.078Z,13.42
2022-10-29T23:49:29.163Z,13.41
2022-10-29T23:51:56.201Z,13.40
2022-10-29T23:54:23.375Z,13.38
2022-10-29T23:56:50.395Z,13.38
2022-10-29T23:59:17.478Z,13.37
